sensor_id;sensor_type;location;lat;lon;timestamp;temperature;humidity
23719;DHT22;43322;52.230;5.702;2022-12-18T00:02:02;-3.30;99.90
23719;DHT22;43322;52.230;5.702;2022-12-18T00:04:29;-3.00;99.90
23719;DHT22;43322;52.230;5.702;2022-12-18T00:06:57;-3.40;99.90
23719;DHT22;43322;52.230;5.702;2022-12-18T00:09:24;-2.90;99.90
23719;DHT22;43322;52.230;5.702;2022-12-18T00:11:51;-3.40;99.90
23719;DHT22;43322;52.230;5.702;2022-12-18T00:14:18;-3.40;99.90
23719;DHT22;43322;52.230;5.702;2022-12-18T00:16:45;-3.40;99.90
23719;DHT22;43322;52.230;5.702;2022-12-18T00:19:13;-3.40;99.90
23719;DHT22;43322;52.230;5.702;2022-12-18T00:21:40;-3.40;99.90
23719;DHT22;43322;52.230;5.702;2022-12-18T00:24:08;-2.90;99.90
23719;DHT22;43322;52.230;5.702;2022-12-18T00:26:36;-3.60;99.90
23719;DHT22;43322;52.230;5.702;2022-12-18T00:29:05;-2.70;99.90
23719;DHT22;43322;52.230;5.702;2022-12-18T00:31:32;-3.70;99.90
23719;DHT22;43322;52.230;5.702;2022-12-18T00:33:59;-3.50;99.90
23719;DHT22;43322;52.230;5.702;2022-12-18T00:36:28;-3.00;99.90
23719;DHT22;43322;52.230;5.702;2022-12-18T00:38:56;-3.20;99.90
23719;DHT22;43322;52.230;5.702;2022-12-18T00:41:25;-3.80;99.90
23719;DHT22;43322;52.230;5.702;2022-12-18T00:44:11;-3.90;99.90
23719;DHT22;43322;52.230;5.702;2022-12-18T00:46:38;-3.90;99.90
23719;DHT22;43322;52.230;5.702;2022-12-18T00:49:05;-3.70;99.90
23719;DHT22;43322;52.230;5.702;2022-12-18T00:51:32;-4.00;99.90
23719;DHT22;43322;52.230;5.702;2022-12-18T00:53:59;-3.90;99.90
23719;DHT22;43322;52.230;5.702;2022-12-18T00:56:27;-3.90;99.90
23719;DHT22;43322;52.230;5.702;2022-12-18T00:58:53;-3.90;99.90
23719;DHT22;43322;52.230;5.702;2022-12-18T01:01:20;-4.00;99.90
23719;DHT22;43322;52.230;5.702;2022-12-18T01:03:47;-3.90;99.90
23719;DHT22;43322;52.230;5.702;2022-12-18T01:06:15;-3.90;99.90
23719;DHT22;43322;52.230;5.702;2022-12-18T01:08:42;-4.00;99.90
23719;DHT22;43322;52.230;5.702;2022-12-18T01:11:10;-4.00;99.90
23719;DHT22;43322;52.230;5.702;2022-12-18T01:13:39;-4.10;99.90
23719;DHT22;43322;52.230;5.702;2022-12-18T01:16:06;-4.10;99.90
23719;DHT22;43322;52.230;5.702;2022-12-18T01:18:34;-4.10;99.90
23719;DHT22;43322;52.230;5.702;2022-12-18T01:21:02;-4.20;99.90
23719;DHT22;43322;52.230;5.702;2022-12-18T01:23:31;-4.20;99.90
23719;DHT22;43322;52.230;5.702;2022-12-18T01:26:03;-4.10;99.90
23719;DHT22;43322;52.230;5.702;2022-12-18T01:28:29;-4.20;99.90
23719;DHT22;43322;52.230;5.702;2022-12-18T01:30:57;-4.30;99.90
23719;DHT22;43322;52.230;5.702;2022-12-18T01:33:35;-4.30;99.90
23719;DHT22;43322;52.230;5.702;2022-12-18T01:36:01;-4.30;99.90
23719;DHT22;43322;52.230;5.702;2022-12-18T01:38:28;-4.40;99.90
23719;DHT22;43322;52.230;5.702;2022-12-18T01:40:57;-4.20;99.90
23719;DHT22;43322;52.230;5.702;2022-12-18T01:43:48;-4.40;99.90
23719;DHT22;43322;52.230;5.702;2022-12-18T01:46:18;-4.40;99.90
23719;DHT22;43322;52.230;5.702;2022-12-18T01:48:47;-4.50;99.90
23719;DHT22;43322;52.230;5.702;2022-12-18T01:51:15;-4.50;99.90
23719;DHT22;43322;52.230;5.702;2022-12-18T01:53:43;-4.50;99.90
23719;DHT22;43322;52.230;5.702;2022-12-18T01:56:13;-4.60;99.90
23719;DHT22;43322;52.230;5.702;2022-12-18T01:58:46;-4.60;99.90
23719;DHT22;43322;52.230;5.702;2022-12-18T02:01:14;-4.70;99.90
23719;DHT22;43322;52.230;5.702;2022-12-18T02:03:43;-4.70;99.90
23719;DHT22;43322;52.230;5.702;2022-12-18T02:06:15;-4.80;99.90
23719;DHT22;43322;52.230;5.702;2022-12-18T02:08:50;-4.70;99.90
23719;DHT22;43322;52.230;5.702;2022-12-18T02:11:26;-4.80;99.90
23719;DHT22;43322;52.230;5.702;2022-12-18T02:14:02;-4.90;99.90
23719;DHT22;43322;52.230;5.702;2022-12-18T02:16:36;-4.90;99.90
23719;DHT22;43322;52.230;5.702;2022-12-18T02:19:18;-4.90;99.90
23719;DHT22;43322;52.230;5.702;2022-12-18T02:21:52;-4.90;99.90
23719;DHT22;43322;52.230;5.702;2022-12-18T02:24:29;-5.00;99.90
23719;DHT22;43322;52.230;5.702;2022-12-18T02:27:02;-5.00;99.90
23719;DHT22;43322;52.230;5.702;2022-12-18T02:29:32;-5.00;99.90
23719;DHT22;43322;52.230;5.702;2022-12-18T02:32:01;-5.00;99.90
23719;DHT22;43322;52.230;5.702;2022-12-18T02:34:31;-5.10;99.90
23719;DHT22;43322;52.230;5.702;2022-12-18T02:37:00;-5.10;99.90
23719;DHT22;43322;52.230;5.702;2022-12-18T02:39:29;-5.10;99.90
23719;DHT22;43322;52.230;5.702;2022-12-18T02:41:57;-5.10;99.90
23719;DHT22;43322;52.230;5.702;2022-12-18T02:44:26;-5.10;99.90
23719;DHT22;43322;52.230;5.702;2022-12-18T02:46:53;-5.10;99.90
23719;DHT22;43322;52.230;5.702;2022-12-18T02:49:28;-4.60;99.90
23719;DHT22;43322;52.230;5.702;2022-12-18T02:52:07;-5.20;99.90
23719;DHT22;43322;52.230;5.702;2022-12-18T02:54:47;-5.20;99.90
23719;DHT22;43322;52.230;5.702;2022-12-18T02:57:21;-5.20;99.90
23719;DHT22;43322;52.230;5.702;2022-12-18T02:59:57;-5.30;99.90
23719;DHT22;43322;52.230;5.702;2022-12-18T03:02:28;-5.30;99.90
23719;DHT22;43322;52.230;5.702;2022-12-18T03:05:00;-5.30;99.90
23719;DHT22;43322;52.230;5.702;2022-12-18T03:07:35;-5.30;99.90
23719;DHT22;43322;52.230;5.702;2022-12-18T03:10:05;-5.40;99.90
23719;DHT22;43322;52.230;5.702;2022-12-18T03:12:36;-5.40;99.90
23719;DHT22;43322;52.230;5.702;2022-12-18T03:15:09;-5.50;99.90
23719;DHT22;43322;52.230;5.702;2022-12-18T03:17:39;-5.50;99.90
23719;DHT22;43322;52.230;5.702;2022-12-18T03:20:12;-5.50;99.90
23719;DHT22;43322;52.230;5.702;2022-12-18T03:22:40;-5.50;99.90
23719;DHT22;43322;52.230;5.702;2022-12-18T03:25:13;-5.50;99.90
23719;DHT22;43322;52.230;5.702;2022-12-18T03:27:43;-5.50;99.90
23719;DHT22;43322;52.230;5.702;2022-12-18T03:30:15;-5.50;99.90
23719;DHT22;43322;52.230;5.702;2022-12-18T03:32:47;-5.60;99.90
23719;DHT22;43322;52.230;5.702;2022-12-18T03:35:18;-5.60;99.90
23719;DHT22;43322;52.230;5.702;2022-12-18T03:37:46;-5.60;99.90
23719;DHT22;43322;52.230;5.702;2022-12-18T03:40:13;-5.60;99.90
23719;DHT22;43322;52.230;5.702;2022-12-18T03:42:46;-5.60;99.90
23719;DHT22;43322;52.230;5.702;2022-12-18T03:45:20;-5.60;99.90
23719;DHT22;43322;52.230;5.702;2022-12-18T03:47:57;-5.60;99.90
23719;DHT22;43322;52.230;5.702;2022-12-18T03:50:29;-5.60;99.90
23719;DHT22;43322;52.230;5.702;2022-12-18T03:53:05;-5.60;99.90
23719;DHT22;43322;52.230;5.702;2022-12-18T03:55:35;-5.30;99.90
23719;DHT22;43322;52.230;5.702;2022-12-18T03:58:03;-5.70;99.90
23719;DHT22;43322;52.230;5.702;2022-12-18T04:00:33;-5.70;99.90
23719;DHT22;43322;52.230;5.702;2022-12-18T04:03:02;-5.70;99.90
23719;DHT22;43322;52.230;5.702;2022-12-18T04:05:30;-5.70;99.90
23719;DHT22;43322;52.230;5.702;2022-12-18T04:07:59;-5.80;99.90
23719;DHT22;43322;52.230;5.702;2022-12-18T04:10:26;-5.80;99.90
23719;DHT22;43322;52.230;5.702;2022-12-18T04:12:55;-5.80;99.90
23719;DHT22;43322;52.230;5.702;2022-12-18T04:15:23;-5.80;99.90
23719;DHT22;43322;52.230;5.702;2022-12-18T04:17:51;-5.80;99.90
23719;DHT22;43322;52.230;5.702;2022-12-18T04:20:18;-5.80;99.90
23719;DHT22;43322;52.230;5.702;2022-12-18T04:22:44;-5.80;99.90
23719;DHT22;43322;52.230;5.702;2022-12-18T04:25:12;-5.90;99.90
23719;DHT22;43322;52.230;5.702;2022-12-18T04:27:39;-5.80;99.90
23719;DHT22;43322;52.230;5.702;2022-12-18T04:30:06;-5.90;99.90
23719;DHT22;43322;52.230;5.702;2022-12-18T04:32:33;-5.90;99.90
23719;DHT22;43322;52.230;5.702;2022-12-18T04:35:01;-5.90;99.90
23719;DHT22;43322;52.230;5.702;2022-12-18T04:37:29;-5.90;99.90
23719;DHT22;43322;52.230;5.702;2022-12-18T04:39:56;-5.90;99.90
23719;DHT22;43322;52.230;5.702;2022-12-18T04:42:22;-5.90;99.90
23719;DHT22;43322;52.230;5.702;2022-12-18T04:44:49;-5.90;99.90
23719;DHT22;43322;52.230;5.702;2022-12-18T04:47:16;-6.00;99.90
23719;DHT22;43322;52.230;5.702;2022-12-18T04:49:42;-6.00;99.90
23719;DHT22;43322;52.230;5.702;2022-12-18T04:52:10;-6.00;99.90
23719;DHT22;43322;52.230;5.702;2022-12-18T04:54:37;-6.00;99.90
23719;DHT22;43322;52.230;5.702;2022-12-18T04:57:04;-5.90;99.90
23719;DHT22;43322;52.230;5.702;2022-12-18T04:59:30;-5.90;99.90
23719;DHT22;43322;52.230;5.702;2022-12-18T05:01:58;-5.90;99.90
23719;DHT22;43322;52.230;5.702;2022-12-18T05:04:24;-5.90;99.90
23719;DHT22;43322;52.230;5.702;2022-12-18T05:06:51;-5.90;99.90
23719;DHT22;43322;52.230;5.702;2022-12-18T05:09:19;-5.90;99.90
23719;DHT22;43322;52.230;5.702;2022-12-18T05:11:46;-5.90;99.90
23719;DHT22;43322;52.230;5.702;2022-12-18T05:14:13;-5.90;99.90
23719;DHT22;43322;52.230;5.702;2022-12-18T05:16:39;-5.80;99.90
23719;DHT22;43322;52.230;5.702;2022-12-18T05:19:06;-5.20;99.90
23719;DHT22;43322;52.230;5.702;2022-12-18T05:21:33;-5.90;99.90
23719;DHT22;43322;52.230;5.702;2022-12-18T05:23:59;-5.80;99.90
23719;DHT22;43322;52.230;5.702;2022-12-18T05:26:27;-5.80;99.90
23719;DHT22;43322;52.230;5.702;2022-12-18T05:28:54;-5.80;99.90
23719;DHT22;43322;52.230;5.702;2022-12-18T05:31:24;-5.80;99.90
23719;DHT22;43322;52.230;5.702;2022-12-18T05:33:50;-5.80;99.90
23719;DHT22;43322;52.230;5.702;2022-12-18T05:36:17;-5.90;99.90
23719;DHT22;43322;52.230;5.702;2022-12-18T05:38:44;-5.90;99.90
23719;DHT22;43322;52.230;5.702;2022-12-18T05:41:10;-5.90;99.90
23719;DHT22;43322;52.230;5.702;2022-12-18T05:43:39;-5.90;99.90
23719;DHT22;43322;52.230;5.702;2022-12-18T05:46:07;-5.70;99.90
23719;DHT22;43322;52.230;5.702;2022-12-18T05:48:34;-6.00;99.90
23719;DHT22;43322;52.230;5.702;2022-12-18T05:51:05;-6.00;99.90
23719;DHT22;43322;52.230;5.702;2022-12-18T05:53:33;-6.00;99.90
23719;DHT22;43322;52.230;5.702;2022-12-18T05:56:01;-6.00;99.90
23719;DHT22;43322;52.230;5.702;2022-12-18T05:58:27;-6.00;99.90
23719;DHT22;43322;52.230;5.702;2022-12-18T06:00:56;-6.00;99.90
23719;DHT22;43322;52.230;5.702;2022-12-18T06:03:22;-5.70;99.90
23719;DHT22;43322;52.230;5.702;2022-12-18T06:05:49;-5.90;99.90
23719;DHT22;43322;52.230;5.702;2022-12-18T06:08:16;-5.90;99.90
23719;DHT22;43322;52.230;5.702;2022-12-18T06:10:49;-5.80;99.90
23719;DHT22;43322;52.230;5.702;2022-12-18T06:13:16;-5.80;99.90
23719;DHT22;43322;52.230;5.702;2022-12-18T06:15:43;-5.80;99.90
23719;DHT22;43322;52.230;5.702;2022-12-18T06:18:11;-5.70;99.90
23719;DHT22;43322;52.230;5.702;2022-12-18T06:20:38;-5.80;99.90
23719;DHT22;43322;52.230;5.702;2022-12-18T06:23:05;-5.80;99.90
23719;DHT22;43322;52.230;5.702;2022-12-18T06:25:31;-5.80;99.90
23719;DHT22;43322;52.230;5.702;2022-12-18T06:27:58;-5.80;99.90
23719;DHT22;43322;52.230;5.702;2022-12-18T06:30:25;-5.80;99.90
23719;DHT22;43322;52.230;5.702;2022-12-18T06:32:52;-5.60;99.90
23719;DHT22;43322;52.230;5.702;2022-12-18T06:35:20;-5.90;99.90
23719;DHT22;43322;52.230;5.702;2022-12-18T06:37:47;-5.90;99.90
23719;DHT22;43322;52.230;5.702;2022-12-18T06:40:13;-5.90;99.90
23719;DHT22;43322;52.230;5.702;2022-12-18T06:42:40;-5.80;99.90
23719;DHT22;43322;52.230;5.702;2022-12-18T06:45:08;-5.90;99.90
23719;DHT22;43322;52.230;5.702;2022-12-18T06:47:34;-5.80;99.90
23719;DHT22;43322;52.230;5.702;2022-12-18T06:50:01;-5.90;99.90
23719;DHT22;43322;52.230;5.702;2022-12-18T06:52:31;-5.80;99.90
23719;DHT22;43322;52.230;5.702;2022-12-18T06:54:58;-5.80;99.90
23719;DHT22;43322;52.230;5.702;2022-12-18T06:57:24;-5.70;99.90
23719;DHT22;43322;52.230;5.702;2022-12-18T06:59:51;-5.70;99.90
23719;DHT22;43322;52.230;5.702;2022-12-18T07:02:18;-5.70;99.90
23719;DHT22;43322;52.230;5.702;2022-12-18T07:04:44;-5.70;99.90
23719;DHT22;43322;52.230;5.702;2022-12-18T07:07:11;-5.70;99.90
23719;DHT22;43322;52.230;5.702;2022-12-18T07:09:39;-5.70;99.90
23719;DHT22;43322;52.230;5.702;2022-12-18T07:12:06;-5.70;99.90
23719;DHT22;43322;52.230;5.702;2022-12-18T07:14:33;-5.70;99.90
23719;DHT22;43322;52.230;5.702;2022-12-18T07:17:00;-5.60;99.90
23719;DHT22;43322;52.230;5.702;2022-12-18T07:19:27;-5.60;99.90
23719;DHT22;43322;52.230;5.702;2022-12-18T07:21:53;-5.60;99.90
23719;DHT22;43322;52.230;5.702;2022-12-18T07:24:20;-5.60;99.90
23719;DHT22;43322;52.230;5.702;2022-12-18T07:26:48;-4.60;99.90
23719;DHT22;43322;52.230;5.702;2022-12-18T07:29:15;-5.40;99.90
23719;DHT22;43322;52.230;5.702;2022-12-18T07:31:42;-5.40;99.90
23719;DHT22;43322;52.230;5.702;2022-12-18T07:34:10;-5.40;99.90
23719;DHT22;43322;52.230;5.702;2022-12-18T07:36:37;-5.30;99.90
23719;DHT22;43322;52.230;5.702;2022-12-18T07:39:03;-5.20;99.90
23719;DHT22;43322;52.230;5.702;2022-12-18T07:41:31;-5.20;99.90
23719;DHT22;43322;52.230;5.702;2022-12-18T07:43:59;-5.20;99.90
23719;DHT22;43322;52.230;5.702;2022-12-18T07:46:25;-5.10;99.90
23719;DHT22;43322;52.230;5.702;2022-12-18T07:48:52;-5.10;99.90
23719;DHT22;43322;52.230;5.702;2022-12-18T07:51:18;-5.10;99.90
23719;DHT22;43322;52.230;5.702;2022-12-18T07:53:45;-5.10;99.90
23719;DHT22;43322;52.230;5.702;2022-12-18T07:56:13;-5.10;99.90
23719;DHT22;43322;52.230;5.702;2022-12-18T07:58:39;-5.10;99.90
23719;DHT22;43322;52.230;5.702;2022-12-18T08:01:09;-5.10;99.90
23719;DHT22;43322;52.230;5.702;2022-12-18T08:03:37;-5.10;99.90
23719;DHT22;43322;52.230;5.702;2022-12-18T08:06:05;-5.00;99.90
23719;DHT22;43322;52.230;5.702;2022-12-18T08:08:33;-5.00;99.90
23719;DHT22;43322;52.230;5.702;2022-12-18T08:11:01;-5.00;99.90
23719;DHT22;43322;52.230;5.702;2022-12-18T08:13:28;-4.90;99.90
23719;DHT22;43322;52.230;5.702;2022-12-18T08:15:58;-4.80;99.90
23719;DHT22;43322;52.230;5.702;2022-12-18T08:18:27;-4.90;99.90
23719;DHT22;43322;52.230;5.702;2022-12-18T08:20:54;-4.80;99.90
23719;DHT22;43322;52.230;5.702;2022-12-18T08:23:21;-4.80;99.90
23719;DHT22;43322;52.230;5.702;2022-12-18T08:25:48;-4.80;99.90
23719;DHT22;43322;52.230;5.702;2022-12-18T08:28:16;-4.80;99.90
23719;DHT22;43322;52.230;5.702;2022-12-18T08:30:43;-4.70;99.90
23719;DHT22;43322;52.230;5.702;2022-12-18T08:33:10;-4.70;99.90
23719;DHT22;43322;52.230;5.702;2022-12-18T08:35:38;-4.70;99.90
23719;DHT22;43322;52.230;5.702;2022-12-18T08:38:04;-4.60;99.90
23719;DHT22;43322;52.230;5.702;2022-12-18T08:40:31;-4.60;99.90
23719;DHT22;43322;52.230;5.702;2022-12-18T08:42:58;-4.60;99.90
23719;DHT22;43322;52.230;5.702;2022-12-18T08:45:42;-4.50;99.90
23719;DHT22;43322;52.230;5.702;2022-12-18T08:48:09;-4.50;99.90
23719;DHT22;43322;52.230;5.702;2022-12-18T08:50:37;-4.40;99.90
23719;DHT22;43322;52.230;5.702;2022-12-18T08:53:04;-4.30;99.90
23719;DHT22;43322;52.230;5.702;2022-12-18T08:55:30;-4.30;99.90
23719;DHT22;43322;52.230;5.702;2022-12-18T08:57:57;-4.30;99.90
23719;DHT22;43322;52.230;5.702;2022-12-18T09:00:24;-4.30;99.90
23719;DHT22;43322;52.230;5.702;2022-12-18T09:02:50;-4.20;99.90
23719;DHT22;43322;52.230;5.702;2022-12-18T09:05:17;-4.20;99.90
23719;DHT22;43322;52.230;5.702;2022-12-18T09:07:45;-4.10;99.90
23719;DHT22;43322;52.230;5.702;2022-12-18T09:10:12;-4.10;99.90
23719;DHT22;43322;52.230;5.702;2022-12-18T09:12:38;-4.00;99.90
23719;DHT22;43322;52.230;5.702;2022-12-18T09:15:06;-3.90;99.90
23719;DHT22;43322;52.230;5.702;2022-12-18T09:17:33;-3.80;99.90
23719;DHT22;43322;52.230;5.702;2022-12-18T09:19:59;-3.70;99.90
23719;DHT22;43322;52.230;5.702;2022-12-18T09:22:26;-3.70;99.90
23719;DHT22;43322;52.230;5.702;2022-12-18T09:24:54;-3.50;99.90
23719;DHT22;43322;52.230;5.702;2022-12-18T09:27:20;-3.50;99.90
23719;DHT22;43322;52.230;5.702;2022-12-18T09:29:47;-3.40;99.90
23719;DHT22;43322;52.230;5.702;2022-12-18T09:32:14;-3.30;99.90
23719;DHT22;43322;52.230;5.702;2022-12-18T09:34:41;-3.20;99.90
23719;DHT22;43322;52.230;5.702;2022-12-18T09:37:07;-2.90;99.90
23719;DHT22;43322;52.230;5.702;2022-12-18T09:39:34;-2.90;99.90
23719;DHT22;43322;52.230;5.702;2022-12-18T09:42:05;-2.90;99.90
23719;DHT22;43322;52.230;5.702;2022-12-18T09:44:36;-3.00;99.90
23719;DHT22;43322;52.230;5.702;2022-12-18T09:47:09;-3.00;99.90
23719;DHT22;43322;52.230;5.702;2022-12-18T09:49:40;-2.90;99.90
23719;DHT22;43322;52.230;5.702;2022-12-18T09:52:12;-2.90;99.90
23719;DHT22;43322;52.230;5.702;2022-12-18T09:54:41;-2.80;99.90
23719;DHT22;43322;52.230;5.702;2022-12-18T09:57:14;-2.70;99.90
23719;DHT22;43322;52.230;5.702;2022-12-18T09:59:43;-2.70;99.90
23719;DHT22;43322;52.230;5.702;2022-12-18T10:02:15;-2.70;99.90
23719;DHT22;43322;52.230;5.702;2022-12-18T10:04:42;-2.60;99.90
23719;DHT22;43322;52.230;5.702;2022-12-18T10:07:16;-2.60;99.90
23719;DHT22;43322;52.230;5.702;2022-12-18T10:09:49;-2.50;99.90
23719;DHT22;43322;52.230;5.702;2022-12-18T10:12:23;-2.50;99.90
23719;DHT22;43322;52.230;5.702;2022-12-18T10:14:58;-2.40;99.90
23719;DHT22;43322;52.230;5.702;2022-12-18T10:17:33;-2.40;99.90
23719;DHT22;43322;52.230;5.702;2022-12-18T10:20:04;-2.40;99.90
23719;DHT22;43322;52.230;5.702;2022-12-18T10:22:48;-2.30;99.90
23719;DHT22;43322;52.230;5.702;2022-12-18T10:25:21;-2.20;99.90
23719;DHT22;43322;52.230;5.702;2022-12-18T10:27:52;-2.30;99.90
23719;DHT22;43322;52.230;5.702;2022-12-18T10:30:21;-2.30;99.90
23719;DHT22;43322;52.230;5.702;2022-12-18T10:32:48;-2.20;99.90
23719;DHT22;43322;52.230;5.702;2022-12-18T10:35:19;-2.10;99.90
23719;DHT22;43322;52.230;5.702;2022-12-18T10:38:04;-2.10;99.90
23719;DHT22;43322;52.230;5.702;2022-12-18T10:40:31;-2.10;99.90
23719;DHT22;43322;52.230;5.702;2022-12-18T10:43:05;-2.10;99.90
23719;DHT22;43322;52.230;5.702;2022-12-18T10:45:32;-2.00;99.90
23719;DHT22;43322;52.230;5.702;2022-12-18T10:48:00;-2.00;99.90
23719;DHT22;43322;52.230;5.702;2022-12-18T10:50:30;-2.00;99.90
23719;DHT22;43322;52.230;5.702;2022-12-18T10:52:59;-1.90;99.90
23719;DHT22;43322;52.230;5.702;2022-12-18T10:55:30;-1.90;99.90
23719;DHT22;43322;52.230;5.702;2022-12-18T10:58:14;-1.90;99.90
23719;DHT22;43322;52.230;5.702;2022-12-18T11:00:42;-1.70;99.90
23719;DHT22;43322;52.230;5.702;2022-12-18T11:03:30;-1.80;99.90
23719;DHT22;43322;52.230;5.702;2022-12-18T11:06:05;-1.70;99.90
23719;DHT22;43322;52.230;5.702;2022-12-18T11:08:32;-1.20;99.90
23719;DHT22;43322;52.230;5.702;2022-12-18T11:10:59;-1.70;99.90
23719;DHT22;43322;52.230;5.702;2022-12-18T11:13:29;-1.60;99.90
23719;DHT22;43322;52.230;5.702;2022-12-18T11:15:57;-1.60;99.90
23719;DHT22;43322;52.230;5.702;2022-12-18T11:18:26;-1.40;99.90
23719;DHT22;43322;52.230;5.702;2022-12-18T11:20:56;-1.60;99.90
23719;DHT22;43322;52.230;5.702;2022-12-18T11:23:24;-1.60;99.90
23719;DHT22;43322;52.230;5.702;2022-12-18T11:25:53;-1.60;99.90
23719;DHT22;43322;52.230;5.702;2022-12-18T11:28:40;-1.50;99.90
23719;DHT22;43322;52.230;5.702;2022-12-18T11:31:17;-1.50;99.90
23719;DHT22;43322;52.230;5.702;2022-12-18T11:33:47;-1.50;99.90
23719;DHT22;43322;52.230;5.702;2022-12-18T11:36:16;-1.40;99.90
23719;DHT22;43322;52.230;5.702;2022-12-18T11:38:44;-1.40;99.90
23719;DHT22;43322;52.230;5.702;2022-12-18T11:41:19;-1.40;99.90
23719;DHT22;43322;52.230;5.702;2022-12-18T11:43:54;-1.30;99.90
23719;DHT22;43322;52.230;5.702;2022-12-18T11:46:27;-1.30;99.90
23719;DHT22;43322;52.230;5.702;2022-12-18T11:49:01;-1.20;99.90
23719;DHT22;43322;52.230;5.702;2022-12-18T11:51:41;-1.20;99.90
23719;DHT22;43322;52.230;5.702;2022-12-18T11:54:12;-1.10;99.90
23719;DHT22;43322;52.230;5.702;2022-12-18T11:56:43;-1.10;99.90
23719;DHT22;43322;52.230;5.702;2022-12-18T11:59:22;-1.00;99.90
23719;DHT22;43322;52.230;5.702;2022-12-18T12:01:55;-1.00;99.90
23719;DHT22;43322;52.230;5.702;2022-12-18T12:04:37;-1.00;99.90
23719;DHT22;43322;52.230;5.702;2022-12-18T12:07:17;-1.00;99.90
23719;DHT22;43322;52.230;5.702;2022-12-18T12:09:53;-0.90;99.90
23719;DHT22;43322;52.230;5.702;2022-12-18T12:12:32;-0.90;99.90
23719;DHT22;43322;52.230;5.702;2022-12-18T12:15:19;-0.80;99.90
23719;DHT22;43322;52.230;5.702;2022-12-18T12:17:53;-0.80;99.90
23719;DHT22;43322;52.230;5.702;2022-12-18T12:20:27;-0.80;99.90
23719;DHT22;43322;52.230;5.702;2022-12-18T12:23:02;-0.80;99.90
23719;DHT22;43322;52.230;5.702;2022-12-18T12:25:39;-0.80;99.90
23719;DHT22;43322;52.230;5.702;2022-12-18T12:28:18;-0.80;99.90
23719;DHT22;43322;52.230;5.702;2022-12-18T12:30:55;-0.80;99.90
23719;DHT22;43322;52.230;5.702;2022-12-18T12:33:35;-0.80;99.90
23719;DHT22;43322;52.230;5.702;2022-12-18T12:36:08;-0.80;99.90
23719;DHT22;43322;52.230;5.702;2022-12-18T12:38:42;-0.80;99.90
23719;DHT22;43322;52.230;5.702;2022-12-18T12:41:14;-0.80;99.90
23719;DHT22;43322;52.230;5.702;2022-12-18T12:43:59;-0.70;99.90
23719;DHT22;43322;52.230;5.702;2022-12-18T12:46:31;-0.70;99.90
23719;DHT22;43322;52.230;5.702;2022-12-18T12:49:02;-0.70;99.90
23719;DHT22;43322;52.230;5.702;2022-12-18T12:51:33;-0.70;99.90
23719;DHT22;43322;52.230;5.702;2022-12-18T12:54:03;-0.70;99.90
23719;DHT22;43322;52.230;5.702;2022-12-18T12:56:36;-0.60;99.90
23719;DHT22;43322;52.230;5.702;2022-12-18T12:59:12;-0.60;99.90
23719;DHT22;43322;52.230;5.702;2022-12-18T13:01:49;-0.70;99.90
23719;DHT22;43322;52.230;5.702;2022-12-18T13:04:23;-0.60;99.90
23719;DHT22;43322;52.230;5.702;2022-12-18T13:06:57;-0.60;99.90
23719;DHT22;43322;52.230;5.702;2022-12-18T13:09:30;-0.50;99.90
23719;DHT22;43322;52.230;5.702;2022-12-18T13:12:02;-0.60;99.90
23719;DHT22;43322;52.230;5.702;2022-12-18T13:14:47;-0.60;99.90
23719;DHT22;43322;52.230;5.702;2022-12-18T13:17:28;-0.60;99.90
23719;DHT22;43322;52.230;5.702;2022-12-18T13:20:11;-0.50;99.90
23719;DHT22;43322;52.230;5.702;2022-12-18T13:22:42;-0.50;99.90
23719;DHT22;43322;52.230;5.702;2022-12-18T13:25:28;-0.60;99.90
23719;DHT22;43322;52.230;5.702;2022-12-18T13:28:00;-0.60;99.90
23719;DHT22;43322;52.230;5.702;2022-12-18T13:30:49;-0.50;99.90
23719;DHT22;43322;52.230;5.702;2022-12-18T13:33:43;-0.50;99.90
23719;DHT22;43322;52.230;5.702;2022-12-18T13:36:23;-0.50;99.90
23719;DHT22;43322;52.230;5.702;2022-12-18T13:39:22;-0.50;99.90
23719;DHT22;43322;52.230;5.702;2022-12-18T13:41:51;-0.60;99.90
23719;DHT22;43322;52.230;5.702;2022-12-18T13:44:26;-0.60;99.90
23719;DHT22;43322;52.230;5.702;2022-12-18T13:46:56;-0.60;99.90
23719;DHT22;43322;52.230;5.702;2022-12-18T13:49:27;-0.60;99.90
23719;DHT22;43322;52.230;5.702;2022-12-18T13:51:57;-0.60;99.90
23719;DHT22;43322;52.230;5.702;2022-12-18T13:54:29;-0.70;99.90
23719;DHT22;43322;52.230;5.702;2022-12-18T13:56:56;-0.70;99.90
23719;DHT22;43322;52.230;5.702;2022-12-18T13:59:24;-0.70;99.90
23719;DHT22;43322;52.230;5.702;2022-12-18T14:01:53;-0.70;99.90
23719;DHT22;43322;52.230;5.702;2022-12-18T14:04:35;-0.70;99.90
23719;DHT22;43322;52.230;5.702;2022-12-18T14:07:04;-0.70;99.90
23719;DHT22;43322;52.230;5.702;2022-12-18T14:09:35;-0.70;99.90
23719;DHT22;43322;52.230;5.702;2022-12-18T14:12:03;-0.70;99.90
23719;DHT22;43322;52.230;5.702;2022-12-18T14:14:50;-0.70;99.90
23719;DHT22;43322;52.230;5.702;2022-12-18T14:17:18;-0.70;99.90
23719;DHT22;43322;52.230;5.702;2022-12-18T14:19:48;-0.70;99.90
23719;DHT22;43322;52.230;5.702;2022-12-18T14:22:17;-0.70;99.90
23719;DHT22;43322;52.230;5.702;2022-12-18T14:24:46;-0.70;99.90
23719;DHT22;43322;52.230;5.702;2022-12-18T14:27:21;-0.70;99.90
23719;DHT22;43322;52.230;5.702;2022-12-18T14:29:48;-0.70;99.90
23719;DHT22;43322;52.230;5.702;2022-12-18T14:32:16;-0.70;99.90
23719;DHT22;43322;52.230;5.702;2022-12-18T14:34:45;-0.70;99.90
23719;DHT22;43322;52.230;5.702;2022-12-18T14:37:13;-0.70;99.90
23719;DHT22;43322;52.230;5.702;2022-12-18T14:39:40;-0.70;99.90
23719;DHT22;43322;52.230;5.702;2022-12-18T14:42:10;-0.70;99.90
23719;DHT22;43322;52.230;5.702;2022-12-18T14:44:37;-0.70;99.90
23719;DHT22;43322;52.230;5.702;2022-12-18T14:47:04;-0.70;99.90
23719;DHT22;43322;52.230;5.702;2022-12-18T14:49:32;-0.60;99.90
23719;DHT22;43322;52.230;5.702;2022-12-18T14:52:02;-0.60;99.90
23719;DHT22;43322;52.230;5.702;2022-12-18T14:54:31;-0.70;99.90
23719;DHT22;43322;52.230;5.702;2022-12-18T14:57:01;-0.70;99.90
23719;DHT22;43322;52.230;5.702;2022-12-18T14:59:29;-0.70;99.90
23719;DHT22;43322;52.230;5.702;2022-12-18T15:02:01;-0.70;99.90
23719;DHT22;43322;52.230;5.702;2022-12-18T15:04:31;-0.70;99.90
23719;DHT22;43322;52.230;5.702;2022-12-18T15:07:18;-0.60;99.90
23719;DHT22;43322;52.230;5.702;2022-12-18T15:10:04;-0.60;99.90
23719;DHT22;43322;52.230;5.702;2022-12-18T15:12:34;-0.70;99.90
23719;DHT22;43322;52.230;5.702;2022-12-18T15:15:02;-0.80;99.90
23719;DHT22;43322;52.230;5.702;2022-12-18T15:17:29;-0.80;99.90
23719;DHT22;43322;52.230;5.702;2022-12-18T15:20:01;-0.80;99.90
23719;DHT22;43322;52.230;5.702;2022-12-18T15:22:31;-0.80;99.90
23719;DHT22;43322;52.230;5.702;2022-12-18T15:25:00;-0.70;99.90
23719;DHT22;43322;52.230;5.702;2022-12-18T15:27:30;-0.70;99.90
23719;DHT22;43322;52.230;5.702;2022-12-18T15:30:17;-0.70;99.90
23719;DHT22;43322;52.230;5.702;2022-12-18T15:32:45;-0.70;99.90
23719;DHT22;43322;52.230;5.702;2022-12-18T15:35:16;-0.70;99.90
23719;DHT22;43322;52.230;5.702;2022-12-18T15:37:45;-0.70;99.90
23719;DHT22;43322;52.230;5.702;2022-12-18T15:40:13;-0.70;99.90
23719;DHT22;43322;52.230;5.702;2022-12-18T15:42:40;-0.70;99.90
23719;DHT22;43322;52.230;5.702;2022-12-18T15:45:25;-0.80;99.90
23719;DHT22;43322;52.230;5.702;2022-12-18T15:47:52;-0.70;99.90
23719;DHT22;43322;52.230;5.702;2022-12-18T15:50:19;-0.70;99.90